sensor_id;sensor_type;location;lat;lon;timestamp;temperature;humidity
28530;DHT22;15737;49.760;6.632;2022-08-04T00:01:07;21.20;71.80
28530;DHT22;15737;49.760;6.632;2022-08-04T00:03:42;21.20;72.20
28530;DHT22;15737;49.760;6.632;2022-08-04T00:08:45;21.10;72.40
28530;DHT22;15737;49.760;6.632;2022-08-04T00:11:32;21.00;72.50
28530;DHT22;15737;49.760;6.632;2022-08-04T00:14:03;20.90;73.20
28530;DHT22;15737;49.760;6.632;2022-08-04T00:16:32;20.80;73.60
28530;DHT22;15737;49.760;6.632;2022-08-04T00:19:03;20.80;74.20
28530;DHT22;15737;49.760;6.632;2022-08-04T00:21:30;20.60;74.20
28530;DHT22;15737;49.760;6.632;2022-08-04T00:24:00;20.60;74.40
28530;DHT22;15737;49.760;6.632;2022-08-04T00:26:27;20.60;74.40
28530;DHT22;15737;49.760;6.632;2022-08-04T00:28:53;20.60;74.50
28530;DHT22;15737;49.760;6.632;2022-08-04T00:31:21;20.70;74.80
28530;DHT22;15737;49.760;6.632;2022-08-04T00:33:48;20.60;75.10
28530;DHT22;15737;49.760;6.632;2022-08-04T00:36:14;20.50;75.30
28530;DHT22;15737;49.760;6.632;2022-08-04T00:38:42;20.40;75.70
28530;DHT22;15737;49.760;6.632;2022-08-04T00:43:58;20.30;76.70
28530;DHT22;15737;49.760;6.632;2022-08-04T00:51:55;20.20;77.20
28530;DHT22;15737;49.760;6.632;2022-08-04T00:55:01;20.20;77.50
28530;DHT22;15737;49.760;6.632;2022-08-04T00:57:47;20.10;77.70
28530;DHT22;15737;49.760;6.632;2022-08-04T01:00:15;20.00;78.30
28530;DHT22;15737;49.760;6.632;2022-08-04T01:08:40;20.00;78.70
28530;DHT22;15737;49.760;6.632;2022-08-04T01:11:39;20.00;79.30
28530;DHT22;15737;49.760;6.632;2022-08-04T01:17:36;19.90;79.70
28530;DHT22;15737;49.760;6.632;2022-08-04T01:20:08;19.80;79.80
28530;DHT22;15737;49.760;6.632;2022-08-04T01:30:24;19.80;79.80
28530;DHT22;15737;49.760;6.632;2022-08-04T01:33:02;19.70;80.80
28530;DHT22;15737;49.760;6.632;2022-08-04T01:35:34;19.70;81.20
28530;DHT22;15737;49.760;6.632;2022-08-04T01:38:11;19.60;81.60
28530;DHT22;15737;49.760;6.632;2022-08-04T01:40:40;19.50;82.00
28530;DHT22;15737;49.760;6.632;2022-08-04T01:43:07;19.50;82.50
28530;DHT22;15737;49.760;6.632;2022-08-04T01:45:36;19.50;82.70
28530;DHT22;15737;49.760;6.632;2022-08-04T01:48:02;19.40;82.80
28530;DHT22;15737;49.760;6.632;2022-08-04T01:50:32;19.40;83.90
28530;DHT22;15737;49.760;6.632;2022-08-04T01:52:59;19.30;84.10
28530;DHT22;15737;49.760;6.632;2022-08-04T01:55:27;19.30;84.60
28530;DHT22;15737;49.760;6.632;2022-08-04T01:57:57;19.30;84.70
28530;DHT22;15737;49.760;6.632;2022-08-04T02:00:26;19.30;84.90
28530;DHT22;15737;49.760;6.632;2022-08-04T02:02:52;19.30;85.30
28530;DHT22;15737;49.760;6.632;2022-08-04T02:05:20;19.20;86.50
28530;DHT22;15737;49.760;6.632;2022-08-04T02:08:04;19.20;86.40
28530;DHT22;15737;49.760;6.632;2022-08-04T02:16:02;19.00;87.40
28530;DHT22;15737;49.760;6.632;2022-08-04T02:21:31;19.00;88.10
28530;DHT22;15737;49.760;6.632;2022-08-04T02:24:04;18.90;88.60
28530;DHT22;15737;49.760;6.632;2022-08-04T02:26:33;19.00;89.00
28530;DHT22;15737;49.760;6.632;2022-08-04T02:29:24;18.90;89.50
28530;DHT22;15737;49.760;6.632;2022-08-04T02:32:04;18.90;89.80
28530;DHT22;15737;49.760;6.632;2022-08-04T02:37:30;18.90;90.20
28530;DHT22;15737;49.760;6.632;2022-08-04T02:39:58;18.90;90.50
28530;DHT22;15737;49.760;6.632;2022-08-04T02:42:26;18.90;90.80
28530;DHT22;15737;49.760;6.632;2022-08-04T02:44:56;18.80;91.00
28530;DHT22;15737;49.760;6.632;2022-08-04T02:47:24;18.70;91.30
28530;DHT22;15737;49.760;6.632;2022-08-04T02:49:51;18.70;91.60
28530;DHT22;15737;49.760;6.632;2022-08-04T02:52:18;18.60;91.90
28530;DHT22;15737;49.760;6.632;2022-08-04T02:54:47;18.60;92.10
28530;DHT22;15737;49.760;6.632;2022-08-04T02:57:14;18.60;92.30
28530;DHT22;15737;49.760;6.632;2022-08-04T02:59:53;18.50;92.50
28530;DHT22;15737;49.760;6.632;2022-08-04T03:05:09;18.50;92.80
28530;DHT22;15737;49.760;6.632;2022-08-04T03:15:53;18.40;93.60
28530;DHT22;15737;49.760;6.632;2022-08-04T03:22:09;18.40;93.80
28530;DHT22;15737;49.760;6.632;2022-08-04T03:24:59;18.30;93.90
28530;DHT22;15737;49.760;6.632;2022-08-04T03:30:48;18.20;94.40
28530;DHT22;15737;49.760;6.632;2022-08-04T03:33:48;18.20;94.50
28530;DHT22;15737;49.760;6.632;2022-08-04T04:00:05;18.00;96.70
28530;DHT22;15737;49.760;6.632;2022-08-04T04:14:04;17.80;97.60
28530;DHT22;15737;49.760;6.632;2022-08-04T04:19:42;17.80;98.50
28530;DHT22;15737;49.760;6.632;2022-08-04T04:25:09;17.80;98.70
28530;DHT22;15737;49.760;6.632;2022-08-04T04:30:18;17.90;98.60
28530;DHT22;15737;49.760;6.632;2022-08-04T04:33:13;18.00;98.60
28530;DHT22;15737;49.760;6.632;2022-08-04T04:39:07;18.30;98.30
28530;DHT22;15737;49.760;6.632;2022-08-04T04:41:47;18.70;97.40
28530;DHT22;15737;49.760;6.632;2022-08-04T04:44:28;19.00;96.90
28530;DHT22;15737;49.760;6.632;2022-08-04T04:47:12;19.10;96.30
28530;DHT22;15737;49.760;6.632;2022-08-04T04:52:37;19.70;95.10
28530;DHT22;15737;49.760;6.632;2022-08-04T04:55:23;20.40;93.60
28530;DHT22;15737;49.760;6.632;2022-08-04T04:57:52;21.30;91.70
28530;DHT22;15737;49.760;6.632;2022-08-04T05:00:19;22.10;89.60
28530;DHT22;15737;49.760;6.632;2022-08-04T05:14:28;25.80;70.60
28530;DHT22;15737;49.760;6.632;2022-08-04T05:17:12;27.00;65.90
28530;DHT22;15737;49.760;6.632;2022-08-04T05:22:31;27.20;63.90
28530;DHT22;15737;49.760;6.632;2022-08-04T05:25:40;27.80;61.40
28530;DHT22;15737;49.760;6.632;2022-08-04T05:28:11;28.50;59.40
28530;DHT22;15737;49.760;6.632;2022-08-04T05:30:41;28.40;59.50
28530;DHT22;15737;49.760;6.632;2022-08-04T05:33:14;28.10;60.10
28530;DHT22;15737;49.760;6.632;2022-08-04T05:35:59;28.30;59.70
28530;DHT22;15737;49.760;6.632;2022-08-04T05:38:33;28.80;58.30
28530;DHT22;15737;49.760;6.632;2022-08-04T05:41:00;28.90;58.00
28530;DHT22;15737;49.760;6.632;2022-08-04T05:43:26;28.80;58.50
28530;DHT22;15737;49.760;6.632;2022-08-04T05:45:52;28.50;59.00
28530;DHT22;15737;49.760;6.632;2022-08-04T05:48:18;29.10;57.60
28530;DHT22;15737;49.760;6.632;2022-08-04T05:50:45;29.20;57.00
28530;DHT22;15737;49.760;6.632;2022-08-04T05:53:12;29.30;56.90
28530;DHT22;15737;49.760;6.632;2022-08-04T05:55:38;29.70;56.10
28530;DHT22;15737;49.760;6.632;2022-08-04T05:58:04;30.90;53.90
28530;DHT22;15737;49.760;6.632;2022-08-04T06:00:30;31.60;52.40
28530;DHT22;15737;49.760;6.632;2022-08-04T06:02:57;31.50;52.30
28530;DHT22;15737;49.760;6.632;2022-08-04T06:05:24;30.30;54.20
28530;DHT22;15737;49.760;6.632;2022-08-04T06:07:50;29.40;56.00
28530;DHT22;15737;49.760;6.632;2022-08-04T06:10:15;29.50;56.00
28530;DHT22;15737;49.760;6.632;2022-08-04T06:12:51;29.80;55.40
28530;DHT22;15737;49.760;6.632;2022-08-04T06:15:19;30.10;54.80
28530;DHT22;15737;49.760;6.632;2022-08-04T06:17:52;30.10;54.60
28530;DHT22;15737;49.760;6.632;2022-08-04T06:20:20;30.40;54.10
28530;DHT22;15737;49.760;6.632;2022-08-04T06:22:52;31.40;52.20
28530;DHT22;15737;49.760;6.632;2022-08-04T06:25:21;33.80;48.20
28530;DHT22;15737;49.760;6.632;2022-08-04T06:27:48;35.30;45.50
28530;DHT22;15737;49.760;6.632;2022-08-04T06:30:15;36.20;43.80
28530;DHT22;15737;49.760;6.632;2022-08-04T06:32:44;37.90;41.60
28530;DHT22;15737;49.760;6.632;2022-08-04T06:35:15;39.60;38.80
28530;DHT22;15737;49.760;6.632;2022-08-04T06:37:42;41.20;36.70
28530;DHT22;15737;49.760;6.632;2022-08-04T06:40:10;41.80;36.10
28530;DHT22;15737;49.760;6.632;2022-08-04T06:42:37;40.70;37.00
28530;DHT22;15737;49.760;6.632;2022-08-04T06:45:04;39.40;38.50
28530;DHT22;15737;49.760;6.632;2022-08-04T06:47:30;37.40;40.80
28530;DHT22;15737;49.760;6.632;2022-08-04T06:49:57;37.50;41.00
28530;DHT22;15737;49.760;6.632;2022-08-04T06:52:24;38.90;39.10
28530;DHT22;15737;49.760;6.632;2022-08-04T06:54:51;39.50;38.50
28530;DHT22;15737;49.760;6.632;2022-08-04T06:57:19;38.20;39.80
28530;DHT22;15737;49.760;6.632;2022-08-04T06:59:49;36.30;42.20
28530;DHT22;15737;49.760;6.632;2022-08-04T07:02:20;35.10;43.90
28530;DHT22;15737;49.760;6.632;2022-08-04T07:04:47;35.30;43.60
28530;DHT22;15737;49.760;6.632;2022-08-04T07:07:14;37.30;41.00
28530;DHT22;15737;49.760;6.632;2022-08-04T07:09:40;39.90;37.50
28530;DHT22;15737;49.760;6.632;2022-08-04T07:12:10;40.50;36.60
28530;DHT22;15737;49.760;6.632;2022-08-04T07:14:38;38.70;38.30
28530;DHT22;15737;49.760;6.632;2022-08-04T07:17:05;37.00;40.30
28530;DHT22;15737;49.760;6.632;2022-08-04T07:19:32;36.60;40.70
28530;DHT22;15737;49.760;6.632;2022-08-04T07:22:02;37.00;40.40
28530;DHT22;15737;49.760;6.632;2022-08-04T07:24:34;39.20;37.70
28530;DHT22;15737;49.760;6.632;2022-08-04T07:27:00;41.80;34.80
28530;DHT22;15737;49.760;6.632;2022-08-04T07:29:26;42.00;34.00
28530;DHT22;15737;49.760;6.632;2022-08-04T07:31:54;41.10;34.90
28530;DHT22;15737;49.760;6.632;2022-08-04T07:34:20;41.10;34.80
28530;DHT22;15737;49.760;6.632;2022-08-04T07:36:54;41.00;34.70
28530;DHT22;15737;49.760;6.632;2022-08-04T07:39:21;40.30;35.40
28530;DHT22;15737;49.760;6.632;2022-08-04T07:41:47;40.10;35.50
28530;DHT22;15737;49.760;6.632;2022-08-04T07:44:14;40.60;34.80
28530;DHT22;15737;49.760;6.632;2022-08-04T07:46:41;40.00;35.50
28530;DHT22;15737;49.760;6.632;2022-08-04T07:49:08;40.50;35.00
28530;DHT22;15737;49.760;6.632;2022-08-04T07:51:35;41.00;34.40
28530;DHT22;15737;49.760;6.632;2022-08-04T07:54:01;41.10;34.60
28530;DHT22;15737;49.760;6.632;2022-08-04T07:56:36;41.60;33.60
28530;DHT22;15737;49.760;6.632;2022-08-04T07:59:02;41.70;33.60
28530;DHT22;15737;49.760;6.632;2022-08-04T08:01:29;40.70;34.60
28530;DHT22;15737;49.760;6.632;2022-08-04T08:03:56;41.40;34.10
28530;DHT22;15737;49.760;6.632;2022-08-04T08:06:23;42.40;33.00
28530;DHT22;15737;49.760;6.632;2022-08-04T08:08:49;43.50;32.00
28530;DHT22;15737;49.760;6.632;2022-08-04T08:11:15;44.00;31.50
28530;DHT22;15737;49.760;6.632;2022-08-04T08:13:42;43.70;31.80
28530;DHT22;15737;49.760;6.632;2022-08-04T08:16:10;43.30;32.10
28530;DHT22;15737;49.760;6.632;2022-08-04T08:18:35;43.80;31.60
28530;DHT22;15737;49.760;6.632;2022-08-04T08:21:01;44.40;31.10
28530;DHT22;15737;49.760;6.632;2022-08-04T08:23:29;43.80;31.20
28530;DHT22;15737;49.760;6.632;2022-08-04T08:25:56;43.90;31.20
28530;DHT22;15737;49.760;6.632;2022-08-04T08:28:22;44.40;30.70
28530;DHT22;15737;49.760;6.632;2022-08-04T08:30:47;43.90;31.20
28530;DHT22;15737;49.760;6.632;2022-08-04T08:33:14;44.10;31.10
28530;DHT22;15737;49.760;6.632;2022-08-04T08:35:56;44.60;30.50
28530;DHT22;15737;49.760;6.632;2022-08-04T08:38:37;43.80;31.30
28530;DHT22;15737;49.760;6.632;2022-08-04T08:47:08;45.00;30.00
28530;DHT22;15737;49.760;6.632;2022-08-04T08:58:27;45.70;29.50
28530;DHT22;15737;49.760;6.632;2022-08-04T09:03:51;45.80;29.20
28530;DHT22;15737;49.760;6.632;2022-08-04T09:06:45;45.10;29.60
28530;DHT22;15737;49.760;6.632;2022-08-04T09:11:54;44.60;29.60
28530;DHT22;15737;49.760;6.632;2022-08-04T09:14:28;45.20;29.30
28530;DHT22;15737;49.760;6.632;2022-08-04T09:17:02;44.60;29.70
28530;DHT22;15737;49.760;6.632;2022-08-04T09:19:41;44.40;29.80
28530;DHT22;15737;49.760;6.632;2022-08-04T09:22:32;45.30;29.20
28530;DHT22;15737;49.760;6.632;2022-08-04T09:25:11;46.10;28.60
28530;DHT22;15737;49.760;6.632;2022-08-04T09:27:45;45.90;28.60
28530;DHT22;15737;49.760;6.632;2022-08-04T09:30:13;46.20;28.50
28530;DHT22;15737;49.760;6.632;2022-08-04T09:38:34;46.20;28.30
28530;DHT22;15737;49.760;6.632;2022-08-04T09:41:23;46.00;28.30
28530;DHT22;15737;49.760;6.632;2022-08-04T09:44:04;45.40;28.70
28530;DHT22;15737;49.760;6.632;2022-08-04T09:46:52;44.70;29.10
28530;DHT22;15737;49.760;6.632;2022-08-04T09:49:35;44.00;29.40
28530;DHT22;15737;49.760;6.632;2022-08-04T09:52:10;43.90;29.60
28530;DHT22;15737;49.760;6.632;2022-08-04T09:54:50;43.90;29.60
28530;DHT22;15737;49.760;6.632;2022-08-04T09:57:24;44.90;29.10
28530;DHT22;15737;49.760;6.632;2022-08-04T10:02:23;46.60;28.30
28530;DHT22;15737;49.760;6.632;2022-08-04T10:04:54;46.80;28.30
28530;DHT22;15737;49.760;6.632;2022-08-04T10:10:36;43.80;28.40
28530;DHT22;15737;49.760;6.632;2022-08-04T10:15:50;42.30;28.70
28530;DHT22;15737;49.760;6.632;2022-08-04T10:18:29;41.70;28.90
28530;DHT22;15737;49.760;6.632;2022-08-04T10:24:05;44.20;27.20
28530;DHT22;15737;49.760;6.632;2022-08-04T10:29:21;45.90;25.90
28530;DHT22;15737;49.760;6.632;2022-08-04T10:32:20;45.80;26.10
28530;DHT22;15737;49.760;6.632;2022-08-04T10:40:34;43.60;27.10
28530;DHT22;15737;49.760;6.632;2022-08-04T10:45:39;43.40;26.10
28530;DHT22;15737;49.760;6.632;2022-08-04T10:50:43;45.10;25.40
28530;DHT22;15737;49.760;6.632;2022-08-04T10:53:17;46.50;25.00
28530;DHT22;15737;49.760;6.632;2022-08-04T10:55:49;47.30;24.50
28530;DHT22;15737;49.760;6.632;2022-08-04T10:58:20;47.50;24.60
28530;DHT22;15737;49.760;6.632;2022-08-04T11:00:46;47.70;24.40
28530;DHT22;15737;49.760;6.632;2022-08-04T11:03:22;45.70;25.40
28530;DHT22;15737;49.760;6.632;2022-08-04T11:05:55;44.80;26.30
28530;DHT22;15737;49.760;6.632;2022-08-04T11:08:36;45.20;25.70
28530;DHT22;15737;49.760;6.632;2022-08-04T11:11:14;46.20;25.40
28530;DHT22;15737;49.760;6.632;2022-08-04T11:13:49;46.90;25.10
28530;DHT22;15737;49.760;6.632;2022-08-04T11:16:23;46.30;24.60
28530;DHT22;15737;49.760;6.632;2022-08-04T11:21:33;43.50;26.10
28530;DHT22;15737;49.760;6.632;2022-08-04T11:24:03;42.30;26.80
28530;DHT22;15737;49.760;6.632;2022-08-04T11:26:43;41.70;27.30
28530;DHT22;15737;49.760;6.632;2022-08-04T11:29:24;41.70;27.40
28530;DHT22;15737;49.760;6.632;2022-08-04T11:31:53;42.40;27.00
28530;DHT22;15737;49.760;6.632;2022-08-04T11:34:24;42.60;26.40
28530;DHT22;15737;49.760;6.632;2022-08-04T11:36:58;42.40;26.60
28530;DHT22;15737;49.760;6.632;2022-08-04T11:39:42;41.70;26.80
28530;DHT22;15737;49.760;6.632;2022-08-04T11:42:20;41.70;27.00
28530;DHT22;15737;49.760;6.632;2022-08-04T11:50:03;42.20;26.70
28530;DHT22;15737;49.760;6.632;2022-08-04T11:52:32;43.10;26.60
28530;DHT22;15737;49.760;6.632;2022-08-04T11:55:02;43.90;26.00
28530;DHT22;15737;49.760;6.632;2022-08-04T11:57:28;44.00;25.60
28530;DHT22;15737;49.760;6.632;2022-08-04T11:59:55;43.90;25.30
28530;DHT22;15737;49.760;6.632;2022-08-04T12:02:32;43.10;25.90
28530;DHT22;15737;49.760;6.632;2022-08-04T12:05:02;41.90;26.60
28530;DHT22;15737;49.760;6.632;2022-08-04T12:13:44;41.20;27.40
28530;DHT22;15737;49.760;6.632;2022-08-04T12:16:29;41.20;27.40
28530;DHT22;15737;49.760;6.632;2022-08-04T12:18:59;41.50;27.20
28530;DHT22;15737;49.760;6.632;2022-08-04T12:24:11;41.50;27.10
28530;DHT22;15737;49.760;6.632;2022-08-04T12:26:42;41.10;27.50
28530;DHT22;15737;49.760;6.632;2022-08-04T12:29:10;41.10;27.20
28530;DHT22;15737;49.760;6.632;2022-08-04T12:40:04;38.50;29.10
28530;DHT22;15737;49.760;6.632;2022-08-04T12:42:54;38.30;29.10
28530;DHT22;15737;49.760;6.632;2022-08-04T12:45:24;38.40;29.20
28530;DHT22;15737;49.760;6.632;2022-08-04T12:47:52;38.30;29.10
28530;DHT22;15737;49.760;6.632;2022-08-04T12:50:18;38.40;28.90
28530;DHT22;15737;49.760;6.632;2022-08-04T12:52:50;38.30;29.20
28530;DHT22;15737;49.760;6.632;2022-08-04T12:55:19;38.60;29.10
28530;DHT22;15737;49.760;6.632;2022-08-04T12:57:46;38.10;29.00
28530;DHT22;15737;49.760;6.632;2022-08-04T13:00:23;37.60;29.40
28530;DHT22;15737;49.760;6.632;2022-08-04T13:02:50;37.50;29.80
28530;DHT22;15737;49.760;6.632;2022-08-04T13:05:17;37.60;29.90
28530;DHT22;15737;49.760;6.632;2022-08-04T13:07:49;37.50;30.10
28530;DHT22;15737;49.760;6.632;2022-08-04T13:10:17;37.80;30.00
28530;DHT22;15737;49.760;6.632;2022-08-04T13:12:56;38.10;30.00
28530;DHT22;15737;49.760;6.632;2022-08-04T13:15:24;38.50;29.70
28530;DHT22;15737;49.760;6.632;2022-08-04T13:17:57;38.50;29.70
28530;DHT22;15737;49.760;6.632;2022-08-04T13:20:26;38.30;29.80
28530;DHT22;15737;49.760;6.632;2022-08-04T13:23:07;38.20;30.00
28530;DHT22;15737;49.760;6.632;2022-08-04T13:25:45;38.20;30.10
28530;DHT22;15737;49.760;6.632;2022-08-04T13:28:25;38.10;30.10
28530;DHT22;15737;49.760;6.632;2022-08-04T13:31:06;37.50;30.90
28530;DHT22;15737;49.760;6.632;2022-08-04T13:33:34;37.30;31.40
28530;DHT22;15737;49.760;6.632;2022-08-04T13:36:00;37.20;31.00
28530;DHT22;15737;49.760;6.632;2022-08-04T13:38:27;37.70;30.70
28530;DHT22;15737;49.760;6.632;2022-08-04T13:41:03;38.20;30.40
28530;DHT22;15737;49.760;6.632;2022-08-04T13:43:45;39.00;29.90
28530;DHT22;15737;49.760;6.632;2022-08-04T13:46:33;40.20;29.10
28530;DHT22;15737;49.760;6.632;2022-08-04T13:49:09;41.10;28.60
28530;DHT22;15737;49.760;6.632;2022-08-04T13:51:36;41.90;28.10
28530;DHT22;15737;49.760;6.632;2022-08-04T13:54:02;42.00;27.60
28530;DHT22;15737;49.760;6.632;2022-08-04T13:56:37;42.00;27.80
28530;DHT22;15737;49.760;6.632;2022-08-04T13:59:09;42.70;27.20
28530;DHT22;15737;49.760;6.632;2022-08-04T14:01:37;42.40;26.90
28530;DHT22;15737;49.760;6.632;2022-08-04T14:04:24;42.00;26.90
28530;DHT22;15737;49.760;6.632;2022-08-04T14:09:26;42.00;26.40
28530;DHT22;15737;49.760;6.632;2022-08-04T14:11:55;41.70;26.70
28530;DHT22;15737;49.760;6.632;2022-08-04T14:14:29;41.20;26.80
28530;DHT22;15737;49.760;6.632;2022-08-04T14:17:04;41.10;27.10
28530;DHT22;15737;49.760;6.632;2022-08-04T14:25:04;43.80;26.10
28530;DHT22;15737;49.760;6.632;2022-08-04T14:27:52;43.70;26.30
28530;DHT22;15737;49.760;6.632;2022-08-04T14:35:29;43.40;25.80
28530;DHT22;15737;49.760;6.632;2022-08-04T14:38:00;42.80;26.30
28530;DHT22;15737;49.760;6.632;2022-08-04T14:40:40;42.70;26.60
28530;DHT22;15737;49.760;6.632;2022-08-04T14:43:07;43.10;26.40
28530;DHT22;15737;49.760;6.632;2022-08-04T14:45:35;43.40;26.10
28530;DHT22;15737;49.760;6.632;2022-08-04T14:48:06;42.70;26.20
28530;DHT22;15737;49.760;6.632;2022-08-04T14:50:37;41.80;26.90
28530;DHT22;15737;49.760;6.632;2022-08-04T14:53:29;41.80;26.90
28530;DHT22;15737;49.760;6.632;2022-08-04T14:55:57;41.70;26.80
28530;DHT22;15737;49.760;6.632;2022-08-04T14:58:26;41.80;26.90
28530;DHT22;15737;49.760;6.632;2022-08-04T15:00:57;41.90;27.00
28530;DHT22;15737;49.760;6.632;2022-08-04T15:03:24;42.20;27.00
28530;DHT22;15737;49.760;6.632;2022-08-04T15:05:51;42.80;26.80
28530;DHT22;15737;49.760;6.632;2022-08-04T15:08:17;43.10;26.50
28530;DHT22;15737;49.760;6.632;2022-08-04T15:10:43;42.60;26.60
28530;DHT22;15737;49.760;6.632;2022-08-04T15:13:10;41.20;27.40
28530;DHT22;15737;49.760;6.632;2022-08-04T15:15:41;40.00;28.00
28530;DHT22;15737;49.760;6.632;2022-08-04T15:18:08;39.80;28.20
28530;DHT22;15737;49.760;6.632;2022-08-04T15:20:34;40.10;28.30
28530;DHT22;15737;49.760;6.632;2022-08-04T15:23:01;40.30;28.10
28530;DHT22;15737;49.760;6.632;2022-08-04T15:25:41;40.80;28.00
28530;DHT22;15737;49.760;6.632;2022-08-04T15:28:12;40.70;28.00
28530;DHT22;15737;49.760;6.632;2022-08-04T15:30:39;40.10;28.50
28530;DHT22;15737;49.760;6.632;2022-08-04T15:33:06;39.60;28.80
28530;DHT22;15737;49.760;6.632;2022-08-04T15:35:32;39.60;29.00
28530;DHT22;15737;49.760;6.632;2022-08-04T15:38:02;39.70;29.10
28530;DHT22;15737;49.760;6.632;2022-08-04T15:40:34;39.90;29.10
28530;DHT22;15737;49.760;6.632;2022-08-04T15:45:48;39.00;29.10
28530;DHT22;15737;49.760;6.632;2022-08-04T15:53:22;37.60;30.30
28530;DHT22;15737;49.760;6.632;2022-08-04T15:55:48;37.20;30.60
28530;DHT22;15737;49.760;6.632;2022-08-04T15:58:15;36.90;30.90
28530;DHT22;15737;49.760;6.632;2022-08-04T16:06:02;37.10;31.30
28530;DHT22;15737;49.760;6.632;2022-08-04T16:16:28;37.10;31.70
28530;DHT22;15737;49.760;6.632;2022-08-04T16:18:55;36.90;32.00
28530;DHT22;15737;49.760;6.632;2022-08-04T16:21:29;36.80;32.30
28530;DHT22;15737;49.760;6.632;2022-08-04T16:26:46;36.40;33.00
28530;DHT22;15737;49.760;6.632;2022-08-04T16:37:04;34.90;35.90
28530;DHT22;15737;49.760;6.632;2022-08-04T16:39:30;34.80;36.10
28530;DHT22;15737;49.760;6.632;2022-08-04T16:41:56;34.70;36.30
28530;DHT22;15737;49.760;6.632;2022-08-04T16:44:33;34.70;36.50
28530;DHT22;15737;49.760;6.632;2022-08-04T16:47:01;34.70;36.50
28530;DHT22;15737;49.760;6.632;2022-08-04T16:49:29;34.70;36.50
28530;DHT22;15737;49.760;6.632;2022-08-04T16:52:04;34.70;36.60
28530;DHT22;15737;49.760;6.632;2022-08-04T16:54:35;34.60;36.70
28530;DHT22;15737;49.760;6.632;2022-08-04T16:57:07;34.60;36.80
28530;DHT22;15737;49.760;6.632;2022-08-04T16:59:34;34.60;36.90
28530;DHT22;15737;49.760;6.632;2022-08-04T17:02:00;34.80;36.80
28530;DHT22;15737;49.760;6.632;2022-08-04T17:04:31;34.90;36.70
28530;DHT22;15737;49.760;6.632;2022-08-04T17:07:01;35.10;36.50
28530;DHT22;15737;49.760;6.632;2022-08-04T17:09:27;35.10;36.60
28530;DHT22;15737;49.760;6.632;2022-08-04T17:11:54;34.90;37.00
28530;DHT22;15737;49.760;6.632;2022-08-04T17:14:21;34.60;37.30
28530;DHT22;15737;49.760;6.632;2022-08-04T17:16:47;34.60;37.50
28530;DHT22;15737;49.760;6.632;2022-08-04T17:19:13;34.40;37.90
28530;DHT22;15737;49.760;6.632;2022-08-04T17:21:39;34.50;38.00
28530;DHT22;15737;49.760;6.632;2022-08-04T17:24:05;34.50;38.10
28530;DHT22;15737;49.760;6.632;2022-08-04T17:26:33;34.60;38.10
28530;DHT22;15737;49.760;6.632;2022-08-04T17:28:59;34.60;38.20
28530;DHT22;15737;49.760;6.632;2022-08-04T17:31:27;34.50;38.20
28530;DHT22;15737;49.760;6.632;2022-08-04T17:33:55;34.30;38.50
28530;DHT22;15737;49.760;6.632;2022-08-04T17:36:25;34.10;38.90
28530;DHT22;15737;49.760;6.632;2022-08-04T17:38:56;33.70;39.40
28530;DHT22;15737;49.760;6.632;2022-08-04T17:41:25;33.30;39.90
28530;DHT22;15737;49.760;6.632;2022-08-04T17:43:52;33.10;40.30
28530;DHT22;15737;49.760;6.632;2022-08-04T17:48:58;32.90;40.50
28530;DHT22;15737;49.760;6.632;2022-08-04T17:54:01;33.00;40.50
28530;DHT22;15737;49.760;6.632;2022-08-04T17:56:30;32.90;40.40
28530;DHT22;15737;49.760;6.632;2022-08-04T17:59:23;32.80;40.70
28530;DHT22;15737;49.760;6.632;2022-08-04T18:07:10;32.30;41.60
28530;DHT22;15737;49.760;6.632;2022-08-04T18:12:12;32.10;41.90
28530;DHT22;15737;49.760;6.632;2022-08-04T18:14:47;32.10;41.80
28530;DHT22;15737;49.760;6.632;2022-08-04T18:17:14;32.20;41.90
28530;DHT22;15737;49.760;6.632;2022-08-04T18:19:53;32.20;41.90
28530;DHT22;15737;49.760;6.632;2022-08-04T18:22:19;32.10;41.90
28530;DHT22;15737;49.760;6.632;2022-08-04T18:24:46;32.20;42.00
28530;DHT22;15737;49.760;6.632;2022-08-04T18:27:12;32.20;41.90
28530;DHT22;15737;49.760;6.632;2022-08-04T18:29:37;32.20;42.00
28530;DHT22;15737;49.760;6.632;2022-08-04T18:32:03;32.10;42.20
28530;DHT22;15737;49.760;6.632;2022-08-04T18:34:29;32.00;42.50
28530;DHT22;15737;49.760;6.632;2022-08-04T18:36:55;31.80;42.70
28530;DHT22;15737;49.760;6.632;2022-08-04T18:39:20;31.60;43.20
28530;DHT22;15737;49.760;6.632;2022-08-04T18:41:49;31.40;43.40
28530;DHT22;15737;49.760;6.632;2022-08-04T18:44:15;31.20;43.90
28530;DHT22;15737;49.760;6.632;2022-08-04T18:46:40;31.00;44.80
28530;DHT22;15737;49.760;6.632;2022-08-04T18:49:06;30.60;45.40
28530;DHT22;15737;49.760;6.632;2022-08-04T18:51:32;30.40;46.30
28530;DHT22;15737;49.760;6.632;2022-08-04T18:53:58;30.10;46.70
28530;DHT22;15737;49.760;6.632;2022-08-04T18:56:27;29.80;47.40
28530;DHT22;15737;49.760;6.632;2022-08-04T18:58:53;29.50;48.50
28530;DHT22;15737;49.760;6.632;2022-08-04T19:01:18;29.10;49.50
28530;DHT22;15737;49.760;6.632;2022-08-04T19:03:44;28.90;50.00
28530;DHT22;15737;49.760;6.632;2022-08-04T19:06:09;28.70;50.60
28530;DHT22;15737;49.760;6.632;2022-08-04T19:08:35;28.50;50.90
28530;DHT22;15737;49.760;6.632;2022-08-04T19:11:03;28.30;51.30
28530;DHT22;15737;49.760;6.632;2022-08-04T19:13:29;28.10;51.80
28530;DHT22;15737;49.760;6.632;2022-08-04T19:15:55;27.90;52.30
28530;DHT22;15737;49.760;6.632;2022-08-04T19:18:22;27.80;52.50
28530;DHT22;15737;49.760;6.632;2022-08-04T19:20:48;27.70;52.60
28530;DHT22;15737;49.760;6.632;2022-08-04T19:23:14;27.60;52.70
28530;DHT22;15737;49.760;6.632;2022-08-04T19:25:40;27.50;53.00
28530;DHT22;15737;49.760;6.632;2022-08-04T19:28:05;27.50;53.00
28530;DHT22;15737;49.760;6.632;2022-08-04T19:30:31;27.40;53.30
28530;DHT22;15737;49.760;6.632;2022-08-04T19:32:57;27.20;53.60
28530;DHT22;15737;49.760;6.632;2022-08-04T19:35:22;27.10;54.20
28530;DHT22;15737;49.760;6.632;2022-08-04T19:37:48;26.90;54.30
28530;DHT22;15737;49.760;6.632;2022-08-04T19:40:13;26.90;54.70
28530;DHT22;15737;49.760;6.632;2022-08-04T19:42:39;26.80;55.00
28530;DHT22;15737;49.760;6.632;2022-08-04T19:45:08;26.80;55.30
28530;DHT22;15737;49.760;6.632;2022-08-04T19:47:34;26.70;55.70
28530;DHT22;15737;49.760;6.632;2022-08-04T19:50:00;26.60;55.90
28530;DHT22;15737;49.760;6.632;2022-08-04T19:52:25;26.50;56.10
28530;DHT22;15737;49.760;6.632;2022-08-04T19:54:51;26.50;56.40
28530;DHT22;15737;49.760;6.632;2022-08-04T19:57:16;26.40;56.50
28530;DHT22;15737;49.760;6.632;2022-08-04T19:59:43;26.30;57.30
28530;DHT22;15737;49.760;6.632;2022-08-04T20:02:09;26.20;57.00
28530;DHT22;15737;49.760;6.632;2022-08-04T20:04:34;26.10;57.00
28530;DHT22;15737;49.760;6.632;2022-08-04T20:07:00;26.10;57.20
28530;DHT22;15737;49.760;6.632;2022-08-04T20:09:25;26.00;57.50